Terminal Aerodrome Forecast
Issued by NWS Greer, SC

Home | Current Version | Previous Version | Text Only | Print | Product List | Glossary On
Versions: 1 2 3 4 5 6 7 8 9 10 11 12 13
982
FTUS42 KGSP 211128
TAFGSP
TAF
KGSP 211128Z 2112/2212 02004KT P6SM BKN250
     FM211500 07005KT P6SM SCT050
     FM211800 13006KT P6SM BKN040
     FM220300 07005KT P6SM OVC025 PROB30 2203/2205 4SM -SHRA OVC007
     FM220500 05004KT 4SM -SHRA OVC015
     FM220600 05004KT 3SM -SHRA OVC008=

USA.gov is the U.S. government's official web portal to all federal, state and local government web resources and services.